Timeline UpdatesTrip UpdatesNews PostsPvt PostsTravel TipsAdmin PostsConv PostsFollowed PostsChat RequestsBlog PostsPNR Posts

Disclaimer
Search
 
 
Fri Aug 1, 2014 09:15:37 ISTHomeTrainsΣChainsAtlasPNRForumGalleryNewsFAQTripsMembersLoginFeedback
No Recent News for this Train
Other Trains in the News **new
Latest...
Temporary Augmentation of 1 SL Coach on 2/1/14 Departing/Terminating at Bhagat ki Kothi from10TH AUG for temparary basis
Thu Jan 02, 2014 (01:58AM)
⇐ Return Journey: Train# 16508

16507/Bhagat Ki Kothi - Bangalore Express

Nov 23 2013 (12:40PM)
Change Departure Station:
Change Arrival Station:
Post a Train Travel TipPost a Train Travel Tip **new
Post a Comment/Question/Picture/VideoPost a Comment/Question/Picture/Video
Pantry/Catering
✓ Pantry Car Avbl
✓ Catering Avbl
RSA - Rake Sharing
Rake/Coach Composition
SLR-2; UR-3; SL-12; 3A-3; 2A-2 ;PC.total 23 coaches.Permanent 3AC from April 11 ex-Jodhpur.
Loco
Wdp-4 hubli shed
News    PNR    Forum    Time-Table    Availability    Fare Chart    Map    Arr/Dep History    Trips    Gallery    ΣChains    X/O    Timeline    
Travel Time: 8h 45m    8 halts    Distance: 446 km    Avg Speed: 50 km/hr
Type: Mail/Express
Zone: SWR/South Western
Departs @ 14:50 (Avg 4m late)
Platform# 7
    T S
Ahmedabad Junction/ADI 
Arrives @ 23:35 (Avg 1m early)
Platform# 7
    T S
Vasai Road/BSR 

8 halts. 82 intermediate Stations between Ahmedabad Junction and Vasai Road

Show ALL intermediate Stations  Show Old Time-Table

#CodeStation NameX/OArrivesAvgDepartsAvgHaltPFDay#KmSpeedElevZoneAddress
1BGKTBhagat Ki Kothi (3)-05:40+0--1-456.557229mNWRJodhpur, Rajasthan
2LUNILuni Junction (3)  06:10+1006:13+103m--1-428.288180mNWRLuni, Rajasthan
3PMYPali Marwar (2)  06:41+1806:43+202m--1-387.035221mNWRPali, Rajasthan
4MJMarwar Junction (4)X  07:36+507:45+89m31-356.081267mNWRMarwar Junction, Rajasthan
5FAFalna (2)  08:34+1608:36+162m11-289.565282mNWRFalna, Rajasthan
6JWBJawai Bandh  08:51+1908:53+192m--1-273.368292mNWRPali, Rajasthan
7ABRAbu Road (3)X  10:06+2510:25+2019m--1-190.638264mNWRSirohi Dist, Rajasthan
8PNUPalanpur Junction (5)X  11:48+211:50+102m11-138.063216mWRPalanpur, Gujarat
9SIDSiddhpur  12:18+1012:20+102m--1-108.647136mWRState Highway 41, Gujarat
10MSHMahesana Junction (6)X  13:05+1513:07+212m--1-73.05395mWRMehsana, Gujarat
11ADI»Ahmedabad Junction (12)»  14:30+814:50+420m710.05451mWRAhmedabad, Gujarat
12NDNadiad Junction (4)  15:41+2315:43+232m1145.66237mWRNadiad, Gujarat
13ANNDAnand Junction (6)X  16:01+2616:03+262m1164.05544mWRAnand, Gujarat
14BRCVadodara Junction (7)X  16:42+2516:52+2610m1199.89036mWRVadodara 390005, Gujarat
15BHBharuch Junction (5)X  17:39+2217:41+172m41170.34219mWRBharuch, Gujarat
16STSurat (4)X  19:05+1419:15+1410m21229.65919mWRSurat 395001, Gujarat
17NVSNavsari (3)  19:45+1719:47+172m21259.26514mWRNavsari, Gujarat
18BLValsad (3)X  20:23+2020:25+222m31298.36615mWRValsad, Gujarat
19VAPIVapi (3)  20:49+2520:51+252m21324.64427mWRVapi, Gujarat
20BSR•Vasai Road (7)•X  23:35-123:40+55m71445.6537mWRThane-401202, Maharashtra
21BIRDBhiwandi Road (4)X  00:11+1100:13+112m22472.92026mCRBhiwandi, Maharashtra
22KYNKalyan Junction (8)  01:08-201:10+72m62490.94810mCRKalyan 421301, Maharashtra
23KJTKarjat Junction (4)  02:08+1002:10+142m12537.73657mCRKarjat, Maharashtra
24LNLLonavala (3)X  02:58+403:00+72m12566.455623mCRLonavala 410401, Maharashtra
25PUNEPune Junction (6)X  04:10+604:20+1410m12630.051556mCRPune 411001, Maharashtra
26STRSatara (3)  07:10+2507:13+263m--2775.864637mCRSatara, Maharashtra
27KRDKarad (3)  08:08+2608:10+282m--2834.453597mCRDist- Satara., Maharashtra
28SLISangli (3)X  09:27+1109:30+163m32902.37559mCRSangli, Maharashtra
29MRJMiraj Junction (6)  10:30-110:35+05m12909.654554mCRMiraj 416410, Maharashtra
30GPBGhatprabha (2)  12:03+2112:05+212m--2989.243621mSWRGhatprabha, Karnataka
31BGMBelgaum (3)  13:25+2613:30+285m--21047.068752mSWRBelgaum 590001, Karnataka
32LDLonda Junction (3)  14:15+4614:17+522m--21098.334643mSWRLonda, Karnataka
33DWRDharwad (4)X  16:20+1416:25+145m--21168.818737mSWRDharwad 580001, Karnataka
34UBLHubli Junction (5)  17:30-317:40+210m121188.864640mSWRHubli - 580020, Karnataka
35HVRHaveri (3)  18:50+1718:52+182m--21263.957558mSWRHaveri, Karnataka
36RNRRanibennur (3)  19:26+2819:28+292m--21296.538583mSWRRanebennur, Karnataka
37HRRHarihar (3)  20:05+2220:10+275m--21319.855553mSWRHarihar, Karnataka
38DVGDavangere (2)  20:24+3420:27+343m121332.668598mSWRDavanagere, Karnataka
39RRBBirur Junction (3)  22:08+3622:10+352m--21447.654802mSWRBirur, Karnataka
40ASKArsikere Junction (3)  23:00+3523:05+445m--21492.655816mSWRArsikere, Karnataka
41TTRTiptur (4)X  23:33+4723:35+482m--21518.138860mSWRTiptur, Karnataka
42TKTumkur (3)  01:28+1801:30+192m--31589.245823mSWRTumkur, Karnataka
43YPRYesvantpur Junction (6)  02:55+503:00+45m--31653.121919mSWRBengaluru 560022, Karnataka
44MWMMalleswaram (2)  03:08-03:10-2m--31655.934916mSWRBengaluru, Karnataka
45SBCBangalore City Junction (10)  03:15+2-831658.7-903mSWRBengaluru-560023, Karnataka
Scroll to Top
Scroll to Bottom